<?xml version="1.0" encoding="UTF-8" standalone="no" ?>
<gpx xmlns="http://www.topografix.com/GPX/1/1" xmlns:xsi="http://www.w3.org/2001/XMLSchema-instance" xsi:schemaLocation="http://www.topografix.com/GPX/1/1 http://www.topografix.com/GPX/1/1/gpx.xsd" version="1.1" creator="VisuGPX - https://www.visugpx.com">
  <metadata>
    <name>Six-Fours-les-Plages</name>
    <desc><![CDATA[gpx récupéré]]></desc>
  </metadata>
  <trk>
    <name><![CDATA[2020 Six-Fours-les-Plages]]></name>
    <desc><![CDATA[gpx récupéré]]></desc>
    <trkseg>
      <trkpt lat="43.08479" lon="5.84272">
        <ele>91.66084</ele>
        <time>2020-09-05T05:51:45.000Z</time>
      </trkpt>
      <trkpt lat="43.08503" lon="5.8423">
        <ele>88.65989</ele>
        <time>2020-09-05T06:34:20.000Z</time>
      </trkpt>
      <trkpt lat="43.08496" lon="5.84189">
        <ele>84.66014</ele>
        <time>2020-09-05T06:34:41.000Z</time>
      </trkpt>
      <trkpt lat="43.08492" lon="5.84139">
        <ele>77.66033</ele>
        <time>2020-09-05T06:35:02.000Z</time>
      </trkpt>
      <trkpt lat="43.08487" lon="5.84098">
        <ele>78.66051</ele>
        <time>2020-09-05T06:35:22.000Z</time>
      </trkpt>
      <trkpt lat="43.08495" lon="5.8406">
        <ele>59.6602</ele>
        <time>2020-09-05T06:35:42.000Z</time>
      </trkpt>
      <trkpt lat="43.08495" lon="5.84015">
        <ele>55.66021</ele>
        <time>2020-09-05T06:36:03.000Z</time>
      </trkpt>
      <trkpt lat="43.08511" lon="5.83985">
        <ele>53.65957</ele>
        <time>2020-09-05T06:36:24.000Z</time>
      </trkpt>
      <trkpt lat="43.08525" lon="5.83967">
        <ele>53.659</ele>
        <time>2020-09-05T06:36:44.000Z</time>
      </trkpt>
      <trkpt lat="43.08528" lon="5.83959">
        <ele>55.65889</ele>
        <time>2020-09-05T06:37:04.000Z</time>
      </trkpt>
      <trkpt lat="43.08539" lon="5.83915">
        <ele>58.65846</ele>
        <time>2020-09-05T06:37:25.000Z</time>
      </trkpt>
      <trkpt lat="43.08548" lon="5.83875">
        <ele>53.65807</ele>
        <time>2020-09-05T06:37:46.000Z</time>
      </trkpt>
      <trkpt lat="43.08565" lon="5.83835">
        <ele>54.65739</ele>
        <time>2020-09-05T06:38:06.000Z</time>
      </trkpt>
      <trkpt lat="43.08576" lon="5.83795">
        <ele>54.65697</ele>
        <time>2020-09-05T06:38:27.000Z</time>
      </trkpt>
      <trkpt lat="43.08566" lon="5.83768">
        <ele>55.65735</ele>
        <time>2020-09-05T06:38:47.000Z</time>
      </trkpt>
      <trkpt lat="43.08529" lon="5.8377">
        <ele>53.65883</ele>
        <time>2020-09-05T06:39:08.000Z</time>
      </trkpt>
      <trkpt lat="43.08495" lon="5.83757">
        <ele>52.66018</ele>
        <time>2020-09-05T06:39:28.000Z</time>
      </trkpt>
      <trkpt lat="43.08466" lon="5.83748">
        <ele>46.66138</ele>
        <time>2020-09-05T06:39:49.000Z</time>
      </trkpt>
      <trkpt lat="43.08435" lon="5.83739">
        <ele>49.66259</ele>
        <time>2020-09-05T06:40:09.000Z</time>
      </trkpt>
      <trkpt lat="43.08404" lon="5.83719">
        <ele>51.66382</ele>
        <time>2020-09-05T06:40:30.000Z</time>
      </trkpt>
      <trkpt lat="43.0838" lon="5.83696">
        <ele>54.66481</ele>
        <time>2020-09-05T06:40:51.000Z</time>
      </trkpt>
      <trkpt lat="43.08354" lon="5.83673">
        <ele>50.66586</ele>
        <time>2020-09-05T06:41:11.000Z</time>
      </trkpt>
      <trkpt lat="43.08322" lon="5.8366">
        <ele>49.66712</ele>
        <time>2020-09-05T06:41:32.000Z</time>
      </trkpt>
      <trkpt lat="43.08295" lon="5.83672">
        <ele>46.66821</ele>
        <time>2020-09-05T06:41:53.000Z</time>
      </trkpt>
      <trkpt lat="43.08283" lon="5.83712">
        <ele>49.66869</ele>
        <time>2020-09-05T06:42:14.000Z</time>
      </trkpt>
      <trkpt lat="43.08283" lon="5.83712">
        <ele>51.66869</ele>
        <time>2020-09-05T06:42:35.000Z</time>
      </trkpt>
    </trkseg>
  </trk>
</gpx>